createdAt,value
2022-11-07T00:00:57.263Z,2.20
2022-11-07T00:01:57.123Z,2.00
2022-11-07T00:02:57.412Z,2.90
2022-11-07T00:03:57.064Z,4.00
2022-11-07T00:04:57.143Z,2.80
2022-11-07T00:05:57.233Z,2.70
2022-11-07T00:06:57.143Z,1.80
2022-11-07T00:07:57.146Z,2.50
2022-11-07T00:08:57.215Z,2.30
2022-11-07T00:09:57.064Z,2.60
2022-11-07T00:10:56.857Z,2.80
2022-11-07T00:11:57.248Z,2.00
2022-11-07T00:12:57.873Z,3.20
2022-11-07T00:13:58.053Z,2.50
2022-11-07T00:14:57.883Z,2.50
2022-11-07T00:15:58.074Z,2.10
2022-11-07T00:16:57.983Z,2.60
2022-11-07T00:17:58.104Z,2.30
2022-11-07T00:18:57.902Z,2.90
2022-11-07T00:19:58.052Z,1.80
2022-11-07T00:20:57.884Z,2.10
2022-11-07T00:21:58.043Z,2.20
2022-11-07T00:22:57.902Z,1.90
2022-11-07T00:23:58.024Z,2.30
2022-11-07T00:24:57.863Z,2.40
2022-11-07T00:25:57.927Z,2.20
2022-11-07T00:26:57.958Z,2.00
2022-11-07T00:27:57.725Z,2.40
2022-11-07T00:28:57.953Z,2.50
2022-11-07T00:29:57.923Z,2.00
2022-11-07T00:30:57.943Z,2.00
2022-11-07T00:31:57.895Z,2.40
2022-11-07T00:33:00.167Z,1.70
2022-11-07T00:33:56.815Z,1.60
2022-11-07T00:34:56.924Z,2.20
2022-11-07T00:35:56.672Z,1.80
2022-11-07T00:36:56.903Z,2.00
2022-11-07T00:37:56.684Z,2.10
2022-11-07T00:38:56.905Z,2.90
2022-11-07T00:39:56.733Z,1.90
2022-11-07T00:40:56.815Z,2.30
2022-11-07T00:41:56.917Z,2.10
2022-11-07T00:42:56.582Z,2.30
2022-11-07T00:43:56.816Z,2.10
2022-11-07T00:44:56.576Z,2.10
2022-11-07T00:45:56.697Z,2.40
2022-11-07T00:46:56.649Z,2.10
2022-11-07T00:47:56.693Z,2.10
2022-11-07T00:48:56.562Z,1.90
2022-11-07T00:49:56.764Z,2.10
2022-11-07T00:50:56.575Z,2.10
2022-11-07T00:51:56.660Z,2.20
2022-11-07T00:52:56.694Z,2.00
2022-11-07T00:53:56.603Z,2.80
2022-11-07T00:54:56.533Z,2.60
2022-11-07T00:55:56.572Z,2.50
2022-11-07T00:56:56.543Z,1.80
2022-11-07T00:57:56.492Z,2.00
2022-11-07T00:58:56.523Z,2.30
2022-11-07T00:59:56.474Z,2.70
2022-11-07T01:00:56.676Z,2.50
2022-11-07T01:01:56.434Z,2.60
2022-11-07T01:02:56.711Z,2.70
2022-11-07T01:03:56.413Z,2.40
2022-11-07T01:04:56.523Z,2.40
2022-11-07T01:05:56.413Z,2.10
2022-11-07T01:06:56.493Z,1.80
2022-11-07T01:07:56.393Z,1.90
2022-11-07T01:08:56.568Z,2.50
2022-11-07T01:09:56.443Z,1.60
2022-11-07T01:10:57.466Z,1.90
2022-11-07T01:11:56.413Z,2.50
2022-11-07T01:12:56.213Z,2.40
2022-11-07T01:13:56.474Z,1.90
2022-11-07T01:14:56.284Z,2.30
2022-11-07T01:15:56.383Z,1.80
2022-11-07T01:16:56.233Z,2.90
2022-11-07T01:17:56.406Z,2.20
2022-11-07T01:18:56.295Z,2.20
2022-11-07T01:19:56.353Z,1.80
2022-11-07T01:20:56.345Z,2.70
2022-11-07T01:21:56.455Z,1.90
2022-11-07T01:22:56.215Z,3.20
2022-11-07T01:23:56.543Z,2.50
2022-11-07T01:24:56.243Z,2.00
2022-11-07T01:25:56.303Z,1.70
2022-11-07T01:26:56.244Z,3.30
2022-11-07T01:27:56.083Z,2.60
2022-11-07T01:28:56.243Z,3.20
2022-11-07T01:29:56.045Z,2.50
2022-11-07T01:30:56.224Z,1.90
2022-11-07T01:31:56.144Z,2.40
2022-11-07T01:32:56.254Z,2.20
2022-11-07T01:33:56.144Z,2.00
2022-11-07T01:34:56.195Z,1.90
2022-11-07T01:35:56.164Z,2.50
2022-11-07T01:36:56.383Z,1.70
2022-11-07T01:37:56.055Z,2.60
2022-11-07T01:38:56.313Z,2.90
2022-11-07T01:39:56.303Z,2.40
2022-11-07T01:40:56.104Z,2.10
2022-11-07T01:41:56.163Z,1.80
2022-11-07T01:42:55.975Z,2.40
2022-11-07T01:43:56.088Z,1.50
2022-11-07T01:44:55.964Z,2.00
2022-11-07T01:45:56.203Z,1.90
2022-11-07T01:46:55.925Z,2.10
2022-11-07T01:47:56.245Z,2.20
2022-11-07T01:48:55.994Z,2.40
2022-11-07T01:49:56.113Z,2.10
2022-11-07T01:50:55.893Z,2.40
2022-11-07T01:51:56.014Z,2.10
2022-11-07T01:52:55.946Z,1.70
2022-11-07T01:53:56.203Z,2.20
2022-11-07T01:54:55.964Z,2.70
2022-11-07T01:55:56.164Z,2.00
2022-11-07T01:56:56.014Z,2.40
2022-11-07T01:57:55.944Z,1.90
2022-11-07T01:58:56.003Z,1.80
2022-11-07T01:59:55.774Z,2.50
2022-11-07T02:00:55.934Z,1.80
2022-11-07T02:01:56.043Z,2.70
2022-11-07T02:02:56.043Z,2.70
2022-11-07T02:03:55.837Z,2.70
2022-11-07T02:04:56.024Z,2.30
2022-11-07T02:05:55.805Z,1.80
2022-11-07T02:06:55.963Z,2.30
2022-11-07T02:07:55.803Z,2.10
2022-11-07T02:08:55.823Z,3.10
2022-11-07T02:09:55.816Z,2.20
2022-11-07T02:10:55.964Z,2.40
2022-11-07T02:11:55.764Z,2.30
2022-11-07T02:12:55.979Z,2.30
2022-11-07T02:13:55.753Z,1.70
2022-11-07T02:14:55.593Z,2.40
2022-11-07T02:15:55.754Z,2.30
2022-11-07T02:16:55.704Z,2.90
2022-11-07T02:17:55.753Z,1.90
2022-11-07T02:18:55.654Z,2.00
2022-11-07T02:19:55.935Z,2.30
2022-11-07T02:20:55.614Z,2.60
2022-11-07T02:21:55.743Z,2.60
2022-11-07T02:22:55.634Z,1.90
2022-11-07T02:23:55.764Z,2.30
2022-11-07T02:24:55.667Z,2.20
2022-11-07T02:25:55.693Z,2.10
2022-11-07T02:26:55.574Z,2.00
2022-11-07T02:27:55.685Z,2.50
2022-11-07T02:28:55.614Z,2.50
2022-11-07T02:29:55.453Z,2.00
2022-11-07T02:30:55.603Z,1.40
2022-11-07T02:31:55.614Z,2.20
2022-11-07T02:32:55.597Z,2.10
2022-11-07T02:33:55.494Z,2.30
2022-11-07T02:34:55.773Z,2.30
2022-11-07T02:35:55.393Z,1.90
2022-11-07T02:36:55.653Z,2.10
2022-11-07T02:37:55.485Z,1.50
2022-11-07T02:38:55.573Z,1.70
2022-11-07T02:39:55.452Z,1.40
2022-11-07T02:40:55.521Z,2.30
2022-11-07T02:41:55.494Z,2.10
2022-11-07T02:42:55.594Z,2.00
2022-11-07T02:43:55.412Z,2.00
2022-11-07T02:44:55.213Z,2.50
2022-11-07T02:45:55.412Z,2.00
2022-11-07T02:46:55.233Z,1.70
2022-11-07T02:47:55.548Z,2.00
2022-11-07T02:48:55.263Z,2.00
2022-11-07T02:49:55.442Z,1.50
2022-11-07T02:50:55.254Z,1.80
2022-11-07T02:51:55.426Z,1.90
2022-11-07T02:52:55.343Z,2.30
2022-11-07T02:53:55.503Z,2.20
2022-11-07T02:54:55.406Z,2.00
2022-11-07T02:55:55.363Z,2.10
2022-11-07T02:56:56.405Z,1.80
2022-11-07T02:57:55.513Z,1.70
2022-11-07T02:58:55.462Z,2.40
2022-11-07T02:59:55.363Z,1.80
2022-11-07T03:00:55.323Z,2.10
2022-11-07T03:01:55.363Z,1.80
2022-11-07T03:02:55.376Z,1.70
2022-11-07T03:03:55.187Z,1.50
2022-11-07T03:04:55.344Z,2.30
2022-11-07T03:05:55.136Z,2.20
2022-11-07T03:06:55.242Z,1.90
2022-11-07T03:07:55.162Z,2.80
2022-11-07T03:08:55.234Z,2.00
2022-11-07T03:09:55.145Z,2.40
2022-11-07T03:10:55.255Z,2.20
2022-11-07T03:11:55.183Z,1.70
2022-11-07T03:12:55.183Z,1.80
2022-11-07T03:13:55.111Z,1.80
2022-11-07T03:14:55.305Z,2.70
2022-11-07T03:15:55.111Z,1.90
2022-11-07T03:16:55.214Z,1.80
2022-11-07T03:17:55.105Z,2.00
2022-11-07T03:18:55.055Z,2.40
2022-11-07T03:19:55.080Z,2.10
2022-11-07T03:20:54.903Z,2.00
2022-11-07T03:21:55.103Z,1.60
2022-11-07T03:22:55.040Z,2.50
2022-11-07T03:23:55.203Z,2.30
2022-11-07T03:24:54.985Z,1.90
2022-11-07T03:25:55.053Z,1.80
2022-11-07T03:26:54.984Z,2.00
2022-11-07T03:27:55.122Z,1.90
2022-11-07T03:28:55.003Z,1.90
2022-11-07T03:29:55.043Z,2.70
2022-11-07T03:30:54.934Z,2.40
2022-11-07T03:31:54.903Z,1.40
2022-11-07T03:32:55.044Z,1.80
2022-11-07T03:33:54.884Z,2.20
2022-11-07T03:34:54.944Z,1.60
2022-11-07T03:35:54.783Z,2.50
2022-11-07T03:36:54.983Z,2.60
2022-11-07T03:37:54.806Z,1.80
2022-11-07T03:38:54.973Z,1.80
2022-11-07T03:39:54.793Z,2.40
2022-11-07T03:40:54.923Z,2.10
2022-11-07T03:41:54.754Z,2.40
2022-11-07T03:42:54.902Z,2.50
2022-11-07T03:43:54.824Z,2.20
2022-11-07T03:44:54.883Z,2.20
2022-11-07T03:45:54.843Z,2.20
2022-11-07T03:46:54.724Z,2.30
2022-11-07T03:47:54.784Z,2.30
2022-11-07T03:48:54.735Z,2.10
2022-11-07T03:49:54.883Z,2.40
2022-11-07T03:50:54.613Z,1.90
2022-11-07T03:51:55.953Z,2.20
2022-11-07T03:52:54.644Z,2.00
2022-11-07T03:53:55.784Z,2.00
2022-11-07T03:54:54.605Z,1.40
2022-11-07T03:55:54.846Z,1.70
2022-11-07T03:56:54.654Z,1.50
2022-11-07T03:57:54.859Z,1.70
2022-11-07T03:58:54.695Z,2.50
2022-11-07T03:59:54.714Z,1.80
2022-11-07T04:00:55.685Z,2.00
2022-11-07T04:01:54.687Z,2.10
2022-11-07T04:02:54.929Z,2.70
2022-11-07T04:03:56.334Z,1.60
2022-11-07T04:04:55.653Z,1.70
2022-11-07T04:05:55.463Z,2.60
2022-11-07T04:06:54.763Z,1.80
2022-11-07T04:07:54.543Z,2.30
2022-11-07T04:08:54.613Z,1.80
2022-11-07T04:09:55.474Z,2.00
2022-11-07T04:10:54.645Z,1.90
2022-11-07T04:11:54.437Z,1.80
2022-11-07T04:12:54.586Z,2.50
2022-11-07T04:13:54.534Z,2.80
2022-11-07T04:14:54.654Z,2.00
2022-11-07T04:15:55.543Z,2.10
2022-11-07T04:16:54.514Z,2.60
2022-11-07T04:17:54.654Z,2.10
2022-11-07T04:18:54.373Z,2.30
2022-11-07T04:19:54.453Z,2.30
2022-11-07T04:20:54.363Z,2.50
2022-11-07T04:21:54.532Z,2.20
2022-11-07T04:22:54.354Z,1.90
2022-11-07T04:23:54.854Z,1.80
2022-11-07T04:24:54.294Z,1.90
2022-11-07T04:25:54.393Z,2.30
2022-11-07T04:26:54.384Z,2.10
2022-11-07T04:27:54.405Z,1.90
2022-11-07T04:28:54.515Z,1.60
2022-11-07T04:29:54.423Z,2.00
2022-11-07T04:30:54.277Z,2.60
2022-11-07T04:31:54.354Z,1.80
2022-11-07T04:32:54.456Z,2.50
2022-11-07T04:33:54.146Z,2.10
2022-11-07T04:34:54.393Z,2.70
2022-11-07T04:35:54.153Z,1.60
2022-11-07T04:36:54.346Z,2.00
2022-11-07T04:37:54.294Z,2.20
2022-11-07T04:38:54.353Z,2.20
2022-11-07T04:39:54.143Z,1.80
2022-11-07T04:40:54.323Z,2.30
2022-11-07T04:41:54.214Z,2.50
2022-11-07T04:42:54.263Z,2.50
2022-11-07T04:43:54.223Z,1.80
2022-11-07T04:44:54.254Z,2.60
2022-11-07T04:45:54.354Z,2.50
2022-11-07T04:46:54.306Z,2.40
2022-11-07T04:47:54.154Z,2.70
2022-11-07T04:48:54.123Z,2.60
2022-11-07T04:49:54.363Z,3.20
2022-11-07T04:50:54.093Z,1.90
2022-11-07T04:51:54.273Z,2.90
2022-11-07T04:52:54.183Z,2.20
2022-11-07T04:53:54.193Z,2.20
2022-11-07T04:54:54.053Z,2.50
2022-11-07T04:55:54.223Z,2.40
2022-11-07T04:56:53.963Z,2.10
2022-11-07T04:57:54.112Z,2.80
2022-11-07T04:58:54.086Z,2.30
2022-11-07T04:59:54.084Z,2.00
2022-11-07T05:00:54.083Z,2.50
2022-11-07T05:01:54.145Z,2.10
2022-11-07T05:02:54.037Z,3.10
2022-11-07T05:03:54.042Z,1.80
2022-11-07T05:04:54.023Z,2.30
2022-11-07T05:05:53.814Z,2.80
2022-11-07T05:06:53.993Z,2.30
2022-11-07T05:07:53.853Z,2.10
2022-11-07T05:08:54.103Z,1.90
2022-11-07T05:09:53.893Z,2.40
2022-11-07T05:10:54.043Z,2.60
2022-11-07T05:11:53.883Z,2.40
2022-11-07T05:12:53.975Z,2.20
2022-11-07T05:13:53.913Z,2.10
2022-11-07T05:14:53.922Z,2.10
2022-11-07T05:15:53.864Z,2.80
2022-11-07T05:16:53.954Z,2.80
2022-11-07T05:17:54.004Z,2.60
2022-11-07T05:18:53.913Z,2.80
2022-11-07T05:19:53.864Z,2.60
2022-11-07T05:20:53.743Z,2.80
2022-11-07T05:21:53.854Z,2.20
2022-11-07T05:22:56.419Z,2.90
2022-11-07T05:23:53.914Z,2.00
2022-11-07T05:24:53.813Z,2.20
2022-11-07T05:25:53.833Z,2.60
2022-11-07T05:26:53.793Z,2.10
2022-11-07T05:27:53.793Z,2.60
2022-11-07T05:28:53.843Z,2.00
2022-11-07T05:29:53.847Z,2.30
2022-11-07T05:30:53.665Z,2.60
2022-11-07T05:31:54.113Z,1.60
2022-11-07T05:32:53.679Z,2.30
2022-11-07T05:33:53.816Z,2.40
2022-11-07T05:34:54.013Z,2.20
2022-11-07T05:35:53.876Z,2.30
2022-11-07T05:36:53.673Z,2.40
2022-11-07T05:37:53.475Z,1.90
2022-11-07T05:38:53.755Z,2.30
2022-11-07T05:39:55.115Z,2.40
2022-11-07T05:40:53.697Z,2.80
2022-11-07T05:41:53.553Z,2.80
2022-11-07T05:42:53.644Z,2.70
2022-11-07T05:43:53.655Z,5.30
2022-11-07T05:44:54.033Z,4.60
2022-11-07T05:45:53.523Z,2.90
2022-11-07T05:46:53.593Z,3.80
2022-11-07T05:47:53.543Z,3.10
2022-11-07T05:48:58.046Z,2.70
2022-11-07T05:49:53.703Z,3.10
2022-11-07T05:50:53.346Z,1.90
2022-11-07T05:51:53.543Z,4.40
2022-11-07T05:52:53.410Z,3.00
2022-11-07T05:53:53.523Z,2.20
2022-11-07T05:54:53.423Z,2.70
2022-11-07T05:55:53.533Z,3.30
2022-11-07T05:56:53.413Z,3.40
2022-11-07T05:57:53.496Z,4.40
2022-11-07T05:58:53.393Z,5.20
2022-11-07T05:59:53.533Z,4.30
2022-11-07T06:00:53.565Z,3.40
2022-11-07T06:01:53.591Z,3.70
2022-11-07T06:02:53.612Z,2.90
2022-11-07T06:03:53.723Z,2.80
2022-11-07T06:04:53.373Z,2.90
2022-11-07T06:05:53.323Z,3.10
2022-11-07T06:06:53.566Z,3.00
2022-11-07T06:07:53.314Z,4.20
2022-11-07T06:08:53.443Z,3.90
2022-11-07T06:09:53.218Z,5.60
2022-11-07T06:10:53.472Z,4.60
2022-11-07T06:11:53.242Z,5.90
2022-11-07T06:12:56.095Z,5.50
2022-11-07T06:13:53.235Z,5.10
2022-11-07T06:14:53.354Z,3.60
2022-11-07T06:15:53.236Z,2.70
2022-11-07T06:16:53.284Z,4.00
2022-11-07T06:17:53.242Z,3.50
2022-11-07T06:18:53.513Z,4.00
2022-11-07T06:19:53.242Z,3.60
2022-11-07T06:20:53.513Z,4.80
2022-11-07T06:21:53.212Z,3.50
2022-11-07T06:22:53.733Z,4.20
2022-11-07T06:23:53.203Z,2.50
2022-11-07T06:24:53.174Z,4.60
2022-11-07T06:25:53.222Z,3.60
2022-11-07T06:26:53.234Z,3.40
2022-11-07T06:27:53.213Z,2.90
2022-11-07T06:28:53.023Z,2.80
2022-11-07T06:29:53.134Z,2.90
2022-11-07T06:30:53.013Z,2.40
2022-11-07T06:31:53.326Z,4.50
2022-11-07T06:32:53.033Z,4.80
2022-11-07T06:33:53.192Z,3.80
2022-11-07T06:34:53.133Z,2.30
2022-11-07T06:35:53.154Z,2.40
2022-11-07T06:37:01.513Z,3.20
2022-11-07T06:37:53.003Z,2.40
2022-11-07T06:38:53.052Z,2.40
2022-11-07T06:39:52.933Z,2.30
2022-11-07T06:40:53.023Z,2.30
2022-11-07T06:41:53.034Z,3.70
2022-11-07T06:42:53.013Z,3.40
2022-11-07T06:43:53.003Z,3.10
2022-11-07T06:44:53.026Z,3.90
2022-11-07T06:45:52.854Z,3.40
2022-11-07T06:46:53.042Z,3.30
2022-11-07T06:47:52.876Z,2.70
2022-11-07T06:48:52.983Z,5.10
2022-11-07T06:49:52.974Z,2.50
2022-11-07T06:50:52.964Z,3.00
2022-11-07T06:51:52.873Z,3.00
2022-11-07T06:52:52.772Z,2.50
2022-11-07T06:57:46.889Z,2.00
2022-11-07T06:58:45.709Z,2.40
2022-11-07T06:59:51.415Z,2.80
2022-11-07T07:00:45.750Z,3.40
2022-11-07T07:01:45.525Z,2.80
2022-11-07T07:02:58.078Z,4.00
2022-11-07T07:03:45.500Z,2.80
2022-11-07T07:04:45.695Z,3.20
2022-11-07T07:05:45.470Z,3.00
2022-11-07T07:06:45.719Z,3.00
2022-11-07T07:07:45.609Z,3.20
2022-11-07T07:08:45.599Z,3.80
2022-11-07T07:09:45.542Z,3.40
2022-11-07T07:10:45.369Z,3.60
2022-11-07T07:11:45.619Z,3.40
2022-11-07T07:12:45.370Z,2.80
2022-11-07T07:13:45.648Z,3.80
2022-11-07T07:14:45.399Z,2.90
2022-11-07T07:15:51.215Z,3.00
2022-11-07T07:16:45.368Z,3.40
2022-11-07T07:17:45.519Z,3.80
2022-11-07T07:18:45.449Z,2.90
2022-11-07T07:19:45.463Z,2.60
2022-11-07T07:20:45.448Z,2.80
2022-11-07T07:21:45.490Z,6.10
2022-11-07T07:22:45.404Z,7.00
2022-11-07T07:23:45.478Z,5.80
2022-11-07T07:24:45.400Z,4.20
2022-11-07T07:25:45.471Z,3.30
2022-11-07T07:26:45.389Z,3.40
2022-11-07T07:27:45.190Z,2.90
2022-11-07T07:28:45.351Z,3.70
2022-11-07T07:29:45.280Z,2.40
2022-11-07T07:30:51.427Z,2.90
2022-11-07T07:31:45.240Z,2.30
2022-11-07T07:32:45.439Z,2.40
2022-11-07T07:34:06.829Z,3.10
2022-11-07T07:34:45.520Z,4.40
2022-11-07T07:36:06.902Z,2.60
2022-11-07T07:36:45.299Z,3.00
2022-11-07T07:37:45.235Z,2.30
2022-11-07T07:38:45.239Z,4.30
2022-11-07T07:39:45.289Z,4.20
2022-11-07T07:40:45.251Z,3.60
2022-11-07T07:41:45.200Z,4.40
2022-11-07T07:42:45.000Z,3.00
2022-11-07T07:43:45.272Z,3.10
2022-11-07T07:44:45.060Z,3.70
2022-11-07T07:45:45.269Z,3.90
2022-11-07T07:46:45.010Z,3.80
2022-11-07T07:47:45.181Z,3.20
2022-11-07T07:48:45.079Z,3.50
2022-11-07T07:49:45.151Z,3.30
2022-11-07T07:50:45.201Z,10.90
2022-11-07T07:51:45.371Z,8.50
2022-11-07T07:52:45.124Z,5.10
2022-11-07T07:53:45.109Z,4.20
2022-11-07T07:54:45.049Z,4.00
2022-11-07T07:55:45.180Z,3.90
2022-11-07T07:56:45.079Z,4.90
2022-11-07T07:57:45.040Z,3.90
2022-11-07T07:58:45.150Z,4.60
2022-11-07T07:59:44.870Z,3.70
2022-11-07T08:00:45.320Z,6.30
2022-11-07T08:01:45.109Z,5.20
2022-11-07T08:02:45.199Z,5.90
2022-11-07T08:04:00.770Z,4.00
2022-11-07T08:04:45.020Z,6.40
2022-11-07T08:05:44.890Z,6.20
2022-11-07T08:06:45.150Z,6.20
2022-11-07T08:07:45.039Z,9.90
2022-11-07T08:08:44.970Z,9.60
2022-11-07T08:09:44.870Z,7.90
2022-11-07T08:10:45.048Z,8.00
2022-11-07T08:11:45.048Z,5.10
2022-11-07T08:12:44.720Z,6.50
2022-11-07T08:13:44.988Z,6.10
2022-11-07T08:14:44.816Z,4.30
2022-11-07T08:15:44.921Z,3.90
2022-11-07T08:16:44.721Z,3.00
2022-11-07T08:17:45.996Z,3.50
2022-11-07T08:18:45.689Z,2.80
2022-11-07T08:19:44.950Z,3.40
2022-11-07T08:20:44.928Z,2.60
2022-11-07T08:21:44.819Z,2.90
2022-11-07T08:22:45.841Z,2.70
2022-11-07T08:23:44.832Z,2.60
2022-11-07T08:24:44.840Z,3.10
2022-11-07T08:25:44.801Z,3.60
2022-11-07T08:26:44.731Z,2.80
2022-11-07T08:27:45.699Z,3.20
2022-11-07T08:28:44.800Z,2.50
2022-11-07T08:29:44.673Z,2.50
2022-11-07T08:30:44.730Z,2.10
2022-11-07T08:31:44.649Z,2.30
2022-11-07T08:32:44.750Z,2.10
2022-11-07T08:33:45.818Z,2.30
2022-11-07T08:34:45.699Z,2.50
2022-11-07T08:35:45.642Z,1.90
2022-11-07T08:36:44.708Z,2.50
2022-11-07T08:37:45.549Z,2.40
2022-11-07T08:38:45.749Z,2.70
2022-11-07T08:39:45.580Z,2.00
2022-11-07T08:40:45.701Z,2.30
2022-11-07T08:41:44.831Z,2.00
2022-11-07T08:42:44.700Z,2.40
2022-11-07T08:43:45.658Z,2.00
2022-11-07T08:44:44.459Z,1.80
2022-11-07T08:45:44.610Z,2.00
2022-11-07T08:46:45.425Z,1.70
2022-11-07T08:47:44.559Z,2.10
2022-11-07T08:48:44.361Z,2.90
2022-11-07T08:49:44.599Z,1.60
2022-11-07T08:50:45.351Z,2.30
2022-11-07T08:52:06.228Z,3.00
2022-11-07T08:52:44.431Z,2.60
2022-11-07T08:53:45.501Z,2.00
2022-11-07T08:54:45.468Z,2.70
2022-11-07T08:55:44.491Z,7.50
2022-11-07T08:56:44.359Z,10.00
2022-11-07T08:57:45.488Z,4.50
2022-11-07T08:58:45.472Z,3.70
2022-11-07T08:59:44.488Z,4.30
2022-11-07T09:00:45.414Z,2.40
2022-11-07T09:02:04.302Z,1.70
2022-11-07T09:03:18.310Z,3.40
2022-11-07T09:04:06.062Z,2.50
2022-11-07T09:04:44.516Z,2.20
2022-11-07T09:05:44.260Z,2.70
2022-11-07T09:06:45.380Z,2.80
2022-11-07T09:07:45.310Z,4.30
2022-11-07T09:08:44.310Z,3.00
2022-11-07T09:09:44.400Z,3.10
2022-11-07T09:10:45.350Z,3.10
2022-11-07T09:11:44.359Z,2.40
2022-11-07T09:12:45.315Z,2.40
2022-11-07T09:13:45.220Z,3.20
2022-11-07T09:14:44.169Z,2.50
2022-11-07T09:15:50.331Z,2.20
2022-11-07T09:16:44.080Z,2.50
2022-11-07T09:17:44.378Z,1.90
2022-11-07T09:18:44.401Z,2.80
2022-11-07T09:19:44.281Z,2.90
2022-11-07T09:20:44.224Z,3.00
2022-11-07T09:21:45.180Z,6.60
2022-11-07T09:22:45.110Z,3.50
2022-11-07T09:23:44.180Z,2.30
2022-11-07T09:24:45.459Z,2.50
2022-11-07T09:25:44.220Z,2.20
2022-11-07T09:26:44.220Z,2.00
2022-11-07T09:27:44.191Z,2.20
2022-11-07T09:28:48.425Z,1.70
2022-11-07T09:29:45.541Z,2.00
2022-11-07T09:30:45.152Z,2.50
2022-11-07T09:31:43.960Z,1.80
2022-11-07T09:32:45.579Z,1.80
2022-11-07T09:33:43.979Z,3.10
2022-11-07T09:34:45.100Z,1.30
2022-11-07T09:35:45.071Z,2.10
2022-11-07T09:36:44.231Z,1.90
2022-11-07T09:37:44.969Z,1.70
2022-11-07T09:38:45.190Z,1.80
2022-11-07T09:39:43.983Z,1.60
2022-11-07T09:40:45.098Z,1.70
2022-11-07T09:41:45.030Z,1.40
2022-11-07T09:42:44.990Z,2.00
2022-11-07T09:43:44.970Z,1.50
2022-11-07T09:44:44.761Z,2.00
2022-11-07T09:45:43.900Z,1.30
2022-11-07T09:46:45.009Z,1.90
2022-11-07T09:47:43.914Z,1.80
2022-11-07T09:48:43.895Z,1.90
2022-11-07T09:49:43.960Z,4.10
2022-11-07T09:50:43.790Z,2.10
2022-11-07T09:51:45.999Z,2.00
2022-11-07T09:52:44.899Z,2.10
2022-11-07T09:53:43.930Z,1.90
2022-11-07T09:54:46.500Z,1.30
2022-11-07T09:55:44.878Z,1.40
2022-11-07T09:56:44.830Z,1.10
2022-11-07T09:57:43.910Z,1.80
2022-11-07T09:58:43.839Z,1.20
2022-11-07T09:59:44.016Z,1.60
2022-11-07T10:00:43.833Z,2.00
2022-11-07T10:01:43.719Z,1.10
2022-11-07T10:02:43.823Z,1.00
2022-11-07T10:04:10.140Z,1.50
2022-11-07T10:04:44.371Z,1.00
2022-11-07T10:05:43.699Z,1.20
2022-11-07T10:06:43.851Z,1.00
2022-11-07T10:07:43.760Z,1.20
2022-11-07T10:08:43.831Z,1.20
2022-11-07T10:09:43.563Z,1.10
2022-11-07T10:10:43.769Z,1.10
2022-11-07T10:11:43.632Z,1.30
2022-11-07T10:12:44.951Z,1.40
2022-11-07T10:13:43.649Z,1.00
2022-11-07T10:14:43.640Z,1.50
2022-11-07T10:15:43.698Z,1.20
2022-11-07T10:16:43.470Z,1.10
2022-11-07T10:17:43.678Z,1.20
2022-11-07T10:18:43.431Z,1.00
2022-11-07T10:19:43.610Z,1.10
2022-11-07T10:20:43.449Z,1.30
2022-11-07T10:21:43.700Z,0.70
2022-11-07T10:22:43.459Z,1.20
2022-11-07T10:23:43.628Z,1.20
2022-11-07T10:24:43.470Z,1.30
2022-11-07T10:25:43.560Z,0.90
2022-11-07T10:26:43.515Z,1.20
2022-11-07T10:27:43.708Z,1.00
2022-11-07T10:28:43.509Z,1.20
2022-11-07T10:29:44.777Z,0.90
2022-11-07T10:30:43.581Z,1.40
2022-11-07T10:31:43.270Z,1.10
2022-11-07T10:32:43.488Z,0.80
2022-11-07T10:33:43.378Z,1.10
2022-11-07T10:34:43.611Z,1.00
2022-11-07T10:35:43.380Z,0.80
2022-11-07T10:36:43.478Z,0.90
2022-11-07T10:37:43.479Z,0.60
2022-11-07T10:38:43.639Z,1.30
2022-11-07T10:39:43.329Z,0.90
2022-11-07T10:40:43.489Z,0.80
2022-11-07T10:41:43.279Z,1.00
2022-11-07T10:42:43.415Z,1.40
2022-11-07T10:43:43.500Z,0.70
2022-11-07T10:44:43.439Z,1.00
2022-11-07T10:45:43.330Z,0.90
2022-11-07T10:46:43.212Z,0.80
2022-11-07T10:47:43.259Z,0.60
2022-11-07T10:48:43.249Z,0.60
2022-11-07T10:49:43.359Z,0.70
2022-11-07T10:50:43.219Z,0.60
2022-11-07T10:51:43.262Z,0.70
2022-11-07T10:52:43.160Z,1.10
2022-11-07T10:53:43.290Z,0.80
2022-11-07T10:54:43.101Z,1.00
2022-11-07T10:55:43.341Z,0.70
2022-11-07T10:56:43.151Z,0.70
2022-11-07T10:57:43.271Z,1.00
2022-11-07T10:58:43.140Z,0.90
2022-11-07T10:59:43.170Z,0.80
2022-11-07T11:00:43.218Z,0.80
2022-11-07T11:01:43.265Z,0.70
2022-11-07T11:02:43.201Z,0.90
2022-11-07T11:03:44.970Z,0.70
2022-11-07T11:30:31.075Z,0.70
2022-11-07T11:31:31.423Z,0.60
2022-11-07T11:32:31.523Z,0.50
2022-11-07T11:58:35.088Z,0.60
2022-11-07T11:59:18.779Z,0.50
2022-11-07T12:00:19.001Z,0.50
2022-11-07T12:01:18.662Z,0.60
2022-11-07T12:02:18.858Z,0.60
2022-11-07T12:03:19.215Z,0.50
2022-11-07T12:04:19.848Z,0.60
2022-11-07T12:05:19.661Z,0.50
2022-11-07T12:06:18.787Z,0.60
2022-11-07T12:07:18.608Z,0.80
2022-11-07T12:08:18.757Z,0.50
2022-11-07T12:09:18.689Z,0.50
2022-11-07T12:10:18.749Z,0.50
2022-11-07T12:11:18.637Z,0.50
2022-11-07T12:12:18.510Z,0.50
2022-11-07T12:13:18.869Z,0.80
2022-11-07T12:14:18.558Z,0.40
2022-11-07T12:15:18.588Z,0.50
2022-11-07T12:16:18.518Z,0.40
2022-11-07T12:17:18.150Z,0.50
2022-11-07T12:18:18.480Z,0.60
2022-11-07T12:19:18.670Z,0.60
2022-11-07T12:20:18.509Z,0.30
2022-11-07T12:21:18.560Z,0.40
2022-11-07T12:22:18.521Z,0.50
2022-11-07T12:23:18.863Z,0.40
2022-11-07T12:24:18.469Z,0.50
2022-11-07T12:25:18.609Z,0.50
2022-11-07T12:26:18.800Z,0.50
2022-11-07T12:29:04.193Z,0.50
2022-11-07T12:30:06.106Z,0.60
2022-11-07T12:31:05.891Z,0.50
2022-11-07T12:32:04.981Z,0.40
2022-11-07T12:51:02.502Z,0.50
2022-11-07T12:51:46.558Z,0.50
2022-11-07T12:52:44.932Z,0.40
2022-11-07T12:53:46.584Z,0.50
2022-11-07T13:03:02.438Z,0.40
2022-11-07T13:04:01.920Z,0.50
2022-11-07T13:34:54.480Z,0.30
2022-11-07T13:35:42.848Z,0.50
2022-11-07T13:36:43.479Z,0.50
2022-11-07T13:37:42.610Z,0.50
2022-11-07T13:39:58.415Z,0.50
2022-11-07T13:42:20.748Z,0.50
2022-11-07T13:43:08.619Z,0.70
2022-11-07T13:51:19.518Z,0.40
2022-11-07T13:52:19.747Z,0.40
2022-11-07T13:56:53.027Z,0.50
2022-11-07T13:57:53.466Z,0.60
2022-11-07T13:58:53.045Z,0.40
2022-11-07T13:59:53.292Z,0.60
2022-11-07T14:00:53.275Z,0.70
2022-11-07T14:01:53.273Z,0.40
2022-11-07T14:02:53.335Z,1.00
2022-11-07T14:03:53.206Z,0.40
2022-11-07T14:05:15.286Z,0.60
2022-11-07T14:07:09.065Z,0.90
2022-11-07T14:08:09.533Z,0.70
2022-11-07T14:10:27.808Z,0.70
2022-11-07T14:11:19.961Z,0.40
2022-11-07T14:12:19.821Z,0.50
2022-11-07T14:13:20.099Z,0.30
2022-11-07T14:14:19.761Z,0.40
2022-11-07T14:16:35.761Z,0.50
2022-11-07T14:17:36.220Z,0.60
2022-11-07T14:18:37.240Z,0.30
2022-11-07T14:19:37.202Z,0.60
2022-11-07T14:20:37.080Z,0.60
2022-11-07T14:21:37.240Z,0.50
2022-11-07T14:22:37.293Z,0.70
2022-11-07T14:23:36.121Z,0.60
2022-11-07T14:24:36.155Z,0.30
2022-11-07T14:25:35.932Z,0.30
2022-11-07T14:26:39.984Z,0.50
2022-11-07T14:27:35.902Z,0.40
2022-11-07T14:28:36.090Z,0.40
2022-11-07T14:29:35.886Z,0.70
2022-11-07T14:30:36.030Z,0.50
2022-11-07T14:31:35.955Z,0.50
2022-11-07T14:32:36.083Z,0.70
2022-11-07T14:33:36.070Z,0.40
2022-11-07T14:34:36.091Z,0.50
2022-11-07T14:35:36.323Z,0.60
2022-11-07T14:36:36.020Z,0.60
2022-11-07T14:37:36.061Z,0.30
2022-11-07T14:38:36.181Z,0.40
2022-11-07T14:39:35.931Z,0.60
2022-11-07T14:40:35.764Z,0.60
2022-11-07T14:41:35.930Z,0.40
2022-11-07T14:42:35.751Z,0.50
2022-11-07T14:43:36.081Z,0.70
2022-11-07T14:45:04.407Z,0.60
2022-11-07T14:46:10.722Z,0.50
2022-11-07T14:46:36.502Z,0.40
2022-11-07T14:47:36.090Z,0.50
2022-11-07T14:48:35.841Z,0.50
2022-11-07T14:49:35.910Z,0.60
2022-11-07T14:50:35.771Z,0.50
2022-11-07T14:51:35.871Z,0.40
2022-11-07T14:52:35.752Z,0.70
2022-11-07T14:53:36.082Z,0.50
2022-11-07T14:54:35.771Z,0.50
2022-11-07T14:55:35.668Z,0.60
2022-11-07T14:56:35.756Z,0.40
2022-11-07T14:57:35.583Z,0.50
2022-11-07T14:58:35.822Z,0.40
2022-11-07T14:59:35.623Z,0.50
2022-11-07T15:00:35.882Z,0.50
2022-11-07T15:01:35.706Z,0.60
2022-11-07T15:02:35.930Z,0.60
2022-11-07T15:03:35.650Z,0.80
2022-11-07T15:04:35.830Z,0.60
2022-11-07T15:05:35.631Z,0.60
2022-11-07T15:06:35.772Z,0.50
2022-11-07T15:07:35.632Z,0.60
2022-11-07T15:08:35.666Z,0.50
2022-11-07T15:09:35.716Z,0.50
2022-11-07T15:10:35.771Z,0.50
2022-11-07T15:11:35.661Z,0.60
2022-11-07T15:12:35.413Z,0.70
2022-11-07T15:13:35.681Z,0.60
2022-11-07T15:14:35.433Z,0.50
2022-11-07T15:15:35.691Z,0.60
2022-11-07T15:16:35.421Z,0.50
2022-11-07T15:17:40.055Z,1.00
2022-11-07T15:18:35.432Z,0.40
2022-11-07T15:19:35.536Z,0.80
2022-11-07T15:20:35.606Z,1.50
2022-11-07T15:21:35.604Z,0.70
2022-11-07T15:22:35.445Z,0.60
2022-11-07T15:23:36.562Z,0.90
2022-11-07T15:24:35.420Z,1.10
2022-11-07T15:25:35.319Z,0.90
2022-11-07T15:26:35.460Z,0.70
2022-11-07T15:27:35.271Z,0.60